createdAt,value
2022-11-25T00:01:34.671Z,100922.69
2022-11-25T00:04:02.566Z,100921.75
2022-11-25T00:06:35.666Z,100913.94
2022-11-25T00:09:10.970Z,100910.41
2022-11-25T00:11:41.470Z,100907.78
2022-11-25T00:14:13.312Z,100912.16
2022-11-25T00:16:45.148Z,100906.91
2022-11-25T00:19:17.388Z,100901.66
2022-11-25T00:21:45.478Z,100905.16
2022-11-25T00:24:15.781Z,100899.03
2022-11-25T00:26:43.897Z,100892.94
2022-11-25T00:29:12.952Z,100896.38
2022-11-25T00:31:41.527Z,100879.72
2022-11-25T00:34:13.701Z,100888.44
2022-11-25T00:36:42.017Z,100878.00
2022-11-25T00:39:19.874Z,100876.31
2022-11-25T00:42:05.671Z,100876.31
2022-11-25T00:44:36.260Z,100876.34
2022-11-25T00:47:27.147Z,100870.22
2022-11-25T00:49:55.000Z,100874.59
2022-11-25T00:52:26.941Z,100871.97
2022-11-25T00:54:55.131Z,100874.59
2022-11-25T00:57:23.946Z,100879.00
2022-11-25T00:59:51.803Z,100860.63
2022-11-25T01:02:22.453Z,100872.84
2022-11-25T01:04:50.729Z,100869.31
2022-11-25T01:07:18.622Z,100865.88
2022-11-25T01:09:46.025Z,100869.31
2022-11-25T01:12:13.126Z,100875.41
2022-11-25T01:14:40.416Z,100875.38
2022-11-25T01:17:07.871Z,100870.13
2022-11-25T01:19:39.955Z,100873.59
2022-11-25T01:22:08.576Z,100872.72
2022-11-25T01:24:35.923Z,100867.44
2022-11-25T01:27:03.377Z,100867.41
2022-11-25T01:29:31.438Z,100870.00
2022-11-25T01:31:58.586Z,100873.50
2022-11-25T01:34:28.109Z,100879.56
2022-11-25T01:36:57.789Z,100886.56
2022-11-25T01:39:32.204Z,100879.50
2022-11-25T01:42:01.803Z,100882.94
2022-11-25T01:44:32.568Z,100880.28
2022-11-25T01:47:10.074Z,100885.50
2022-11-25T01:49:46.518Z,100874.94
2022-11-25T01:52:31.527Z,100887.13
2022-11-25T01:55:16.072Z,100883.59
2022-11-25T01:58:11.790Z,100892.25
2022-11-25T02:00:39.863Z,100880.03
2022-11-25T02:03:08.832Z,100881.66
2022-11-25T02:05:50.785Z,100886.00
2022-11-25T02:08:21.082Z,100877.22
2022-11-25T02:10:48.713Z,100885.09
2022-11-25T02:13:24.817Z,100880.63
2022-11-25T02:15:52.085Z,100881.50
2022-11-25T02:18:19.368Z,100888.47
2022-11-25T02:20:46.533Z,100888.44
2022-11-25T02:23:48.586Z,100890.06
2022-11-25T02:26:16.037Z,100895.34
2022-11-25T02:28:43.713Z,100891.81
2022-11-25T02:31:10.869Z,100906.63
2022-11-25T02:33:38.080Z,100903.97
2022-11-25T02:36:14.647Z,100903.91
2022-11-25T02:38:48.962Z,100905.59
2022-11-25T02:41:33.440Z,100909.06
2022-11-25T02:44:05.106Z,100902.91
2022-11-25T02:46:33.397Z,100909.88
2022-11-25T02:49:10.818Z,100913.34
2022-11-25T02:51:44.661Z,100905.47
2022-11-25T02:54:15.543Z,100901.91
2022-11-25T02:56:43.497Z,100911.56
2022-11-25T02:59:11.910Z,100911.56
2022-11-25T03:01:40.145Z,100921.19
2022-11-25T03:04:09.903Z,100934.31
2022-11-25T03:06:37.021Z,100928.22
2022-11-25T03:09:05.314Z,100935.22
2022-11-25T03:12:11.334Z,100941.34
2022-11-25T03:14:39.178Z,100939.63
2022-11-25T03:17:07.633Z,100943.16
2022-11-25T03:19:34.745Z,100928.41
2022-11-25T03:22:02.754Z,100937.19
2022-11-25T03:24:29.850Z,100936.38
2022-11-25T03:26:56.948Z,100946.91
2022-11-25T03:29:24.071Z,100941.72
2022-11-25T03:31:51.532Z,100950.53
2022-11-25T03:34:18.706Z,100948.81
2022-11-25T03:36:45.825Z,100951.47
2022-11-25T03:39:12.953Z,100948.03
2022-11-25T03:41:39.974Z,100931.44
2022-11-25T03:44:07.166Z,100918.31
2022-11-25T03:46:40.545Z,100899.97
2022-11-25T03:49:07.944Z,100902.63
2022-11-25T03:51:35.383Z,100893.94
2022-11-25T03:54:02.482Z,100877.25
2022-11-25T03:56:35.689Z,100873.75
2022-11-25T03:59:02.752Z,100884.25
2022-11-25T04:01:29.895Z,100893.00
2022-11-25T04:03:57.186Z,100890.41
2022-11-25T04:06:24.462Z,100892.13
2022-11-25T04:08:55.335Z,100904.38
2022-11-25T04:11:22.369Z,100911.34
2022-11-25T04:13:55.826Z,100920.06
2022-11-25T04:16:26.589Z,100917.41
2022-11-25T04:18:54.729Z,100932.28
2022-11-25T04:21:21.762Z,100931.38
2022-11-25T04:23:49.890Z,100948.88
2022-11-25T04:26:17.216Z,100950.63
2022-11-25T04:28:45.201Z,100954.09
2022-11-25T04:31:13.105Z,100961.06
2022-11-25T04:33:42.720Z,100975.97
2022-11-25T04:36:10.798Z,100985.59
2022-11-25T04:38:37.770Z,100988.22
2022-11-25T04:41:06.153Z,100981.25
2022-11-25T04:43:38.897Z,100982.16
2022-11-25T04:46:19.444Z,100983.09
2022-11-25T04:48:50.410Z,100989.34
2022-11-25T04:51:17.783Z,100987.66
2022-11-25T04:53:48.691Z,100995.59
2022-11-25T04:56:21.941Z,101004.34
2022-11-25T04:59:10.224Z,101007.84
2022-11-25T05:01:41.004Z,101008.72
2022-11-25T05:04:23.197Z,101017.44
2022-11-25T05:06:51.653Z,101007.75
2022-11-25T05:09:19.529Z,101023.44
2022-11-25T05:11:52.291Z,101026.88
2022-11-25T05:14:19.526Z,101024.22
2022-11-25T05:16:46.672Z,101021.56
2022-11-25T05:19:14.028Z,101026.75
2022-11-25T05:21:41.151Z,101031.13
2022-11-25T05:24:08.325Z,101027.56
2022-11-25T05:26:37.173Z,101030.16
2022-11-25T05:29:06.583Z,101031.91
2022-11-25T05:31:34.918Z,101030.09
2022-11-25T05:34:04.237Z,101028.34
2022-11-25T05:36:32.360Z,101024.84
2022-11-25T05:39:00.978Z,101025.72
2022-11-25T05:41:44.856Z,101035.41
2022-11-25T05:44:12.526Z,101026.63
2022-11-25T05:46:40.667Z,101029.19
2022-11-25T05:49:07.760Z,101035.34
2022-11-25T05:51:35.382Z,101037.91
2022-11-25T05:54:05.151Z,101042.25
2022-11-25T05:56:35.977Z,101032.53
2022-11-25T05:59:25.905Z,101038.56
2022-11-25T06:02:03.625Z,101035.84
2022-11-25T06:04:31.874Z,101040.22
2022-11-25T06:06:59.111Z,101046.34
2022-11-25T06:09:26.229Z,101043.81
2022-11-25T06:11:53.408Z,101049.94
2022-11-25T06:14:20.459Z,101048.97
2022-11-25T06:16:50.593Z,101053.38
2022-11-25T06:19:25.407Z,101052.63
2022-11-25T06:21:52.515Z,101056.34
2022-11-25T06:24:19.843Z,101061.03
2022-11-25T06:26:50.571Z,101076.16
2022-11-25T06:29:19.591Z,101071.16
2022-11-25T06:31:50.592Z,101078.34
2022-11-25T06:34:43.417Z,101087.25
2022-11-25T06:37:20.575Z,101083.88
2022-11-25T06:39:47.693Z,101090.97
2022-11-25T06:42:14.710Z,101091.06
2022-11-25T06:44:41.735Z,101088.53
2022-11-25T06:47:08.774Z,101096.47
2022-11-25T06:49:35.701Z,101097.41
2022-11-25T06:52:02.845Z,101100.94
2022-11-25T06:54:30.117Z,101098.38
2022-11-25T06:56:57.154Z,101097.53
2022-11-25T06:59:24.309Z,101107.19
2022-11-25T07:01:51.704Z,101117.69
2022-11-25T07:04:18.736Z,101117.72
2022-11-25T07:06:45.778Z,101120.38
2022-11-25T07:09:12.906Z,101127.41
2022-11-25T07:11:42.266Z,101133.50
2022-11-25T07:14:16.218Z,101143.13
2022-11-25T07:16:46.150Z,101134.44
2022-11-25T07:19:16.999Z,101136.19
2022-11-25T07:21:45.946Z,101133.59
2022-11-25T07:24:17.008Z,101139.72
2022-11-25T07:26:45.057Z,101147.59
2022-11-25T07:29:50.059Z,101149.31
2022-11-25T07:32:07.299Z,101155.50
2022-11-25T07:34:37.165Z,101165.09
2022-11-25T07:37:04.258Z,101166.84
2022-11-25T07:39:31.302Z,101168.59
2022-11-25T07:41:58.413Z,101180.81
2022-11-25T07:44:25.456Z,101180.78
2022-11-25T07:47:17.683Z,101180.75
2022-11-25T07:49:44.770Z,101186.00
2022-11-25T07:52:11.746Z,101192.09
2022-11-25T07:54:38.760Z,101193.78
2022-11-25T07:57:05.712Z,101199.00
2022-11-25T07:59:32.762Z,101205.09
2022-11-25T08:01:59.890Z,101203.31
2022-11-25T08:04:27.947Z,101202.38
2022-11-25T08:06:55.037Z,101209.31
2022-11-25T08:09:24.201Z,101217.13
2022-11-25T08:11:52.911Z,101219.72
2022-11-25T08:14:21.745Z,101221.38
2022-11-25T08:16:49.810Z,101231.81
2022-11-25T08:19:18.426Z,101231.72
2022-11-25T08:21:47.940Z,101229.91
2022-11-25T08:24:21.145Z,101235.97
2022-11-25T08:26:49.294Z,101228.91
2022-11-25T08:29:19.136Z,101237.56
2022-11-25T08:31:47.582Z,101238.41
2022-11-25T08:34:24.962Z,101239.25
2022-11-25T08:36:58.790Z,101248.78
2022-11-25T08:42:12.882Z,101255.66
2022-11-25T08:44:40.951Z,101253.84
2022-11-25T08:47:07.987Z,101258.16
2022-11-25T08:49:40.466Z,101258.06
2022-11-25T08:52:09.723Z,101259.78
2022-11-25T08:54:36.941Z,101263.22
2022-11-25T08:57:04.157Z,101269.28
2022-11-25T08:59:31.204Z,101267.50
2022-11-25T09:01:58.336Z,101263.06
2022-11-25T09:04:25.516Z,101270.88
2022-11-25T09:06:58.496Z,101264.72
2022-11-25T09:09:26.468Z,101275.16
2022-11-25T09:11:53.520Z,101277.72
2022-11-25T09:14:20.648Z,101283.75
2022-11-25T09:16:48.016Z,101286.34
2022-11-25T09:19:15.107Z,101288.97
2022-11-25T09:21:46.021Z,101289.75
2022-11-25T09:24:13.157Z,101298.41
2022-11-25T09:26:41.189Z,101304.50
2022-11-25T09:29:08.724Z,101309.69
2022-11-25T09:31:35.846Z,101310.50
2022-11-25T09:34:04.064Z,101325.31
2022-11-25T09:36:31.628Z,101318.25
2022-11-25T09:38:58.727Z,101323.41
2022-11-25T09:42:08.368Z,101329.47
2022-11-25T09:45:26.010Z,101326.75
2022-11-25T09:48:21.024Z,101330.13
2022-11-25T09:51:27.631Z,101337.94
2022-11-25T09:54:03.741Z,101335.28
2022-11-25T09:57:45.835Z,101350.06
2022-11-25T10:00:18.210Z,101352.59
2022-11-25T10:03:04.516Z,101352.53
2022-11-25T10:05:39.357Z,101358.56
2022-11-25T10:08:20.902Z,101350.59
2022-11-25T10:11:27.167Z,101357.50
2022-11-25T10:14:09.146Z,101359.16
2022-11-25T10:16:51.532Z,101360.81
2022-11-25T10:20:00.729Z,101367.75
2022-11-25T10:22:36.605Z,101365.91
2022-11-25T10:25:20.437Z,101370.16
2022-11-25T10:27:58.694Z,101382.38
2022-11-25T10:30:44.190Z,101379.69
2022-11-25T10:33:26.583Z,101374.38
2022-11-25T10:36:18.194Z,101384.75
2022-11-25T10:39:05.157Z,101382.03
2022-11-25T10:41:59.563Z,101390.72
2022-11-25T10:44:32.864Z,101390.63
2022-11-25T10:47:22.023Z,101392.25
2022-11-25T10:50:01.234Z,101399.19
2022-11-25T10:52:35.131Z,101398.19
2022-11-25T10:56:00.899Z,101408.59
2022-11-25T10:58:33.968Z,101409.38
2022-11-25T11:01:22.998Z,101414.53
2022-11-25T11:04:05.615Z,101417.97
2022-11-25T11:06:39.738Z,101412.66
2022-11-25T11:09:26.783Z,101418.69
2022-11-25T11:11:53.811Z,101419.47
2022-11-25T11:14:21.654Z,101422.00
2022-11-25T11:16:55.338Z,101426.34
2022-11-25T11:19:31.102Z,101429.78
2022-11-25T11:22:17.738Z,101439.38
2022-11-25T11:24:44.741Z,101436.63
2022-11-25T11:27:24.998Z,101441.81
2022-11-25T11:30:20.287Z,101445.16
2022-11-25T11:33:27.581Z,101445.88
2022-11-25T11:36:27.993Z,101451.91
2022-11-25T11:39:11.761Z,101446.50
2022-11-25T11:42:04.872Z,101452.56
2022-11-25T11:44:59.264Z,101454.19
2022-11-25T11:48:11.227Z,101453.13
2022-11-25T11:50:47.304Z,101465.31
2022-11-25T11:53:35.653Z,101463.44
2022-11-25T11:56:36.533Z,101462.50
2022-11-25T11:59:37.038Z,101465.00
2022-11-25T12:02:19.956Z,101471.06
2022-11-25T12:05:04.841Z,101478.03
2022-11-25T12:07:40.574Z,101477.78
2022-11-25T12:10:51.866Z,101481.97
2022-11-25T12:14:01.034Z,101486.31
2022-11-25T12:16:50.629Z,101487.19
2022-11-25T12:19:33.581Z,101488.06
2022-11-25T12:22:10.944Z,101489.88
2022-11-25T12:25:08.952Z,101502.97
2022-11-25T12:27:46.145Z,101495.81
2022-11-25T12:30:16.404Z,101505.41
2022-11-25T12:32:48.692Z,101503.56
2022-11-25T12:35:43.874Z,101508.78
2022-11-25T12:38:34.026Z,101515.72
2022-11-25T12:41:49.620Z,101517.41
2022-11-25T12:44:44.526Z,101518.13
2022-11-25T12:47:11.777Z,101514.75
2022-11-25T12:49:48.213Z,101522.63
2022-11-25T12:52:49.725Z,101520.84
2022-11-25T12:55:27.902Z,101529.59
2022-11-25T12:58:44.866Z,101540.81
2022-11-25T13:01:51.384Z,101549.50
2022-11-25T13:05:25.035Z,101541.13
2022-11-25T13:08:09.415Z,101544.41
2022-11-25T13:11:26.037Z,101556.41
2022-11-25T13:14:21.002Z,101553.31
2022-11-25T13:16:50.084Z,101555.75
2022-11-25T13:19:19.661Z,101550.47
2022-11-25T13:22:06.212Z,101558.47
2022-11-25T13:24:41.971Z,101564.94
2022-11-25T13:27:53.583Z,101567.97
2022-11-25T13:30:32.763Z,101572.59
2022-11-25T13:33:22.525Z,101578.91
2022-11-25T13:35:54.985Z,101581.66
2022-11-25T13:38:31.101Z,101589.63
2022-11-25T13:41:21.188Z,101588.84
2022-11-25T13:44:02.145Z,101603.91
2022-11-25T13:46:46.696Z,101600.50
2022-11-25T13:49:43.267Z,101610.47
2022-11-25T13:52:13.458Z,101607.13
2022-11-25T13:54:55.575Z,101610.78
2022-11-25T13:57:34.712Z,101605.66
2022-11-25T14:00:35.654Z,101605.88
2022-11-25T14:03:20.959Z,101608.66
2022-11-25T14:06:21.704Z,101609.59
2022-11-25T14:09:25.246Z,101614.97
2022-11-25T14:12:32.989Z,101618.47
2022-11-25T14:15:44.583Z,101627.19
2022-11-25T14:19:16.773Z,101627.34
2022-11-25T14:21:53.078Z,101643.50
2022-11-25T14:24:52.566Z,101636.75
2022-11-25T14:27:36.125Z,101634.38
2022-11-25T14:30:12.669Z,101633.66
2022-11-25T14:33:11.401Z,101637.25
2022-11-25T14:35:51.134Z,101648.75
2022-11-25T14:38:26.665Z,101655.78
2022-11-25T14:41:10.648Z,101647.84
2022-11-25T14:43:46.766Z,101647.78
2022-11-25T14:46:21.358Z,101653.97
2022-11-25T14:49:02.863Z,101666.28
2022-11-25T14:51:38.636Z,101680.38
2022-11-25T14:54:10.358Z,101675.16
2022-11-25T14:56:38.946Z,101681.31
2022-11-25T14:59:10.582Z,101677.88
2022-11-25T15:01:40.112Z,101685.78
2022-11-25T15:04:18.397Z,101693.72
2022-11-25T15:07:01.965Z,101696.44
2022-11-25T15:09:36.705Z,101707.03
2022-11-25T15:12:11.565Z,101715.88
2022-11-25T15:14:43.300Z,101714.31
2022-11-25T15:17:31.904Z,101722.31
2022-11-25T15:20:17.436Z,101719.00
2022-11-25T15:22:53.898Z,101731.34
2022-11-25T15:25:21.087Z,101729.72
2022-11-25T15:27:53.509Z,101730.75
2022-11-25T15:30:21.921Z,101734.38
2022-11-25T15:32:51.291Z,101738.00
2022-11-25T15:35:22.842Z,101737.28
2022-11-25T15:37:51.229Z,101740.94
2022-11-25T15:40:55.830Z,101747.25
2022-11-25T15:43:27.347Z,101752.69
2022-11-25T15:46:01.894Z,101758.06
2022-11-25T15:48:40.317Z,101758.16
2022-11-25T15:51:21.441Z,101764.44
2022-11-25T15:53:57.015Z,101773.28
2022-11-25T15:56:27.900Z,101771.59
2022-11-25T15:59:00.135Z,101778.66
2022-11-25T16:01:30.876Z,101791.00
2022-11-25T16:04:20.937Z,101793.66
2022-11-25T16:06:57.182Z,101799.88
2022-11-25T16:09:27.423Z,101804.34
2022-11-25T16:12:07.524Z,101805.25
2022-11-25T16:14:37.699Z,101808.84
2022-11-25T16:17:12.424Z,101816.75
2022-11-25T16:19:47.140Z,101829.06
2022-11-25T16:22:20.509Z,101828.19
2022-11-25T16:25:02.715Z,101833.50
2022-11-25T16:27:39.094Z,101844.03
2022-11-25T16:30:06.758Z,101846.69
2022-11-25T16:32:34.983Z,101860.75
2022-11-25T16:35:24.874Z,101859.00
2022-11-25T16:37:58.407Z,101870.41
2022-11-25T16:40:28.084Z,101872.19
2022-11-25T16:42:56.204Z,101882.69
2022-11-25T16:45:28.030Z,101880.97
2022-11-25T16:47:59.237Z,101878.31
2022-11-25T16:50:26.962Z,101886.19
2022-11-25T16:52:54.851Z,101887.91
2022-11-25T16:55:24.331Z,101896.66
2022-11-25T16:57:54.408Z,101894.03
2022-11-25T17:00:22.153Z,101901.91
2022-11-25T17:02:49.684Z,101900.19
2022-11-25T17:05:26.034Z,101901.09
2022-11-25T17:07:53.487Z,101922.16
2022-11-25T17:10:22.146Z,101926.56
2022-11-25T17:12:50.252Z,101930.94
2022-11-25T17:15:32.337Z,101938.84
2022-11-25T17:18:03.231Z,101935.34
2022-11-25T17:20:30.694Z,101941.50
2022-11-25T17:23:01.376Z,101952.00
2022-11-25T17:25:33.840Z,101944.16
2022-11-25T17:28:04.261Z,101952.06
2022-11-25T17:30:32.423Z,101959.97
2022-11-25T17:33:13.356Z,101949.44
2022-11-25T17:35:40.451Z,101957.34
2022-11-25T17:38:19.123Z,101960.84
2022-11-25T17:40:49.573Z,101960.84
2022-11-25T17:43:20.522Z,101967.88
2022-11-25T17:45:47.864Z,101978.38
2022-11-25T17:48:17.842Z,101982.75
2022-11-25T17:50:46.854Z,101986.25
2022-11-25T17:53:14.140Z,102001.19
2022-11-25T17:55:42.738Z,102000.28
2022-11-25T17:58:14.751Z,102006.41
2022-11-25T18:00:43.919Z,102016.06
2022-11-25T18:03:13.388Z,102016.06
2022-11-25T18:05:40.450Z,102030.06
2022-11-25T18:08:07.854Z,102028.34
2022-11-25T18:10:35.601Z,102041.44
2022-11-25T18:13:03.209Z,102039.72
2022-11-25T18:15:33.996Z,102042.34
2022-11-25T18:18:24.153Z,102049.34
2022-11-25T18:20:53.770Z,102057.19
2022-11-25T18:23:20.769Z,102052.84
2022-11-25T18:25:48.206Z,102058.97
2022-11-25T18:28:21.996Z,102056.34
2022-11-25T18:30:50.746Z,102066.84
2022-11-25T18:33:19.378Z,102070.34
2022-11-25T18:35:47.773Z,102069.47
2022-11-25T18:38:14.885Z,102078.19
2022-11-25T18:40:47.587Z,102075.56
2022-11-25T18:43:24.550Z,102087.81
2022-11-25T18:45:53.970Z,102082.53
2022-11-25T18:48:23.748Z,102078.16
2022-11-25T18:50:54.939Z,102085.16
2022-11-25T18:53:21.995Z,102091.25
2022-11-25T18:55:49.908Z,102094.75
2022-11-25T18:58:21.512Z,102099.13
2022-11-25T19:00:50.843Z,102114.84
2022-11-25T19:03:27.373Z,102117.47
2022-11-25T19:05:55.845Z,102124.44
2022-11-25T19:08:23.070Z,102116.56
2022-11-25T19:10:51.451Z,102123.56
2022-11-25T19:13:27.356Z,102117.41
2022-11-25T19:15:58.666Z,102115.66
2022-11-25T19:18:28.331Z,102127.88
2022-11-25T19:20:55.473Z,102128.72
2022-11-25T19:23:25.954Z,102119.97
2022-11-25T19:26:04.768Z,102125.19
2022-11-25T19:28:32.374Z,102138.28
2022-11-25T19:31:04.747Z,102145.25
2022-11-25T19:33:40.428Z,102148.72
2022-11-25T19:36:17.208Z,102144.31
2022-11-25T19:38:44.201Z,102155.66
2022-11-25T19:41:11.313Z,102162.69
2022-11-25T19:43:38.266Z,102169.66
2022-11-25T19:46:05.976Z,102172.25
2022-11-25T19:48:39.233Z,102173.09
2022-11-25T19:51:06.440Z,102174.81
2022-11-25T19:53:34.449Z,102178.28
2022-11-25T19:56:04.413Z,102189.63
2022-11-25T19:58:32.189Z,102193.09
2022-11-25T20:01:06.024Z,102200.09
2022-11-25T20:03:34.567Z,102200.97
2022-11-25T20:06:01.670Z,102208.78
2022-11-25T20:08:28.941Z,102210.47
2022-11-25T20:10:57.737Z,102207.84
2022-11-25T20:13:28.670Z,102212.19
2022-11-25T20:16:31.117Z,102220.88
2022-11-25T20:18:58.960Z,102232.22
2022-11-25T20:21:36.366Z,102235.75
2022-11-25T20:24:10.719Z,102239.25
2022-11-25T20:26:40.212Z,102238.44
2022-11-25T20:29:18.044Z,102245.50
2022-11-25T20:31:45.737Z,102240.31
2022-11-25T20:34:12.878Z,102244.72
2022-11-25T20:36:43.036Z,102248.25
2022-11-25T20:39:19.091Z,102246.50
2022-11-25T20:41:52.760Z,102249.03
2022-11-25T20:44:21.243Z,102254.25
2022-11-25T20:46:48.456Z,102254.16
2022-11-25T20:49:27.494Z,102269.84
2022-11-25T20:51:57.143Z,102265.41
2022-11-25T20:54:26.391Z,102269.66
2022-11-25T20:56:56.378Z,102267.84
2022-11-25T20:59:24.516Z,102273.94
2022-11-25T21:01:54.492Z,102279.13
2022-11-25T21:04:21.840Z,102280.00
2022-11-25T21:06:48.754Z,102281.69
2022-11-25T21:09:24.650Z,102282.53
2022-11-25T21:11:51.739Z,102288.59
2022-11-25T21:14:20.537Z,102294.66
2022-11-25T21:16:48.297Z,102303.28
2022-11-25T21:19:15.567Z,102295.34
2022-11-25T21:21:46.709Z,102304.00
2022-11-25T21:24:40.233Z,102297.81
2022-11-25T21:27:15.223Z,102314.34
2022-11-25T21:29:45.053Z,102319.53
2022-11-25T21:32:25.691Z,102324.69
2022-11-25T21:34:53.281Z,102318.44
2022-11-25T21:37:30.960Z,102327.97
2022-11-25T21:39:59.341Z,102329.63
2022-11-25T21:42:29.413Z,102322.56
2022-11-25T21:44:56.803Z,102326.81
2022-11-25T21:47:28.982Z,102332.81
2022-11-25T21:49:58.430Z,102340.59
2022-11-25T21:52:25.455Z,102345.75
2022-11-25T21:54:52.552Z,102351.75
2022-11-25T21:57:28.299Z,102343.81
2022-11-25T21:59:55.885Z,102348.97
2022-11-25T22:02:25.080Z,102352.34
2022-11-25T22:04:52.774Z,102364.47
2022-11-25T22:07:19.901Z,102367.06
2022-11-25T22:09:47.637Z,102373.13
2022-11-25T22:12:29.533Z,102380.03
2022-11-25T22:14:59.991Z,102366.88
2022-11-25T22:17:28.922Z,102379.00
2022-11-25T22:19:57.381Z,102385.88
2022-11-25T22:22:24.486Z,102386.72
2022-11-25T22:24:51.538Z,102383.19
2022-11-25T22:27:25.856Z,102386.53
2022-11-25T22:29:54.640Z,102396.06
2022-11-25T22:32:22.313Z,102393.38
2022-11-25T22:34:49.343Z,102397.66
2022-11-25T22:37:24.061Z,102397.53
2022-11-25T22:39:51.715Z,102404.47
2022-11-25T22:42:29.543Z,102407.94
2022-11-25T22:45:00.545Z,102409.63
2022-11-25T22:47:37.461Z,102414.88
2022-11-25T22:50:28.201Z,102408.69
2022-11-25T22:52:57.442Z,102412.97
2022-11-25T22:55:32.840Z,102415.53
2022-11-25T22:58:01.622Z,102419.84
2022-11-25T23:00:33.159Z,102417.16
2022-11-25T23:03:04.505Z,102423.28
2022-11-25T23:05:37.369Z,102429.34
2022-11-25T23:08:24.882Z,102429.34
2022-11-25T23:10:53.230Z,102430.19
2022-11-25T23:13:20.652Z,102431.03
2022-11-25T23:15:53.482Z,102437.13
2022-11-25T23:18:42.880Z,102441.41
2022-11-25T23:21:23.578Z,102441.41
2022-11-25T23:23:51.483Z,102443.16
2022-11-25T23:26:18.590Z,102450.13
2022-11-25T23:28:45.958Z,102448.41
2022-11-25T23:31:15.952Z,102448.47
2022-11-25T23:33:50.910Z,102447.56
2022-11-25T23:36:34.316Z,102450.19
2022-11-25T23:39:03.734Z,102459.75
2022-11-25T23:41:34.727Z,102465.91
2022-11-25T23:44:25.896Z,102461.47
2022-11-25T23:47:00.286Z,102467.50
2022-11-25T23:49:35.584Z,102470.19
2022-11-25T23:52:08.064Z,102470.28
2022-11-25T23:54:42.599Z,102474.78
2022-11-25T23:57:30.240Z,102476.59
2022-11-25T23:59:57.626Z,102478.41
